sensor_id;sensor_type;location;lat;lon;timestamp;P1;durP1;ratioP1;P2;durP2;ratioP2
37097;SDS011;63608;49.572;12.348;2022-11-21T00:01:25;11.40;;;9.00;;
37097;SDS011;63608;49.572;12.348;2022-11-21T00:03:28;8.40;;;7.60;;
37097;SDS011;63608;49.572;12.348;2022-11-21T00:05:31;10.50;;;9.40;;
37097;SDS011;63608;49.572;12.348;2022-11-21T00:07:34;8.97;;;8.07;;
37097;SDS011;63608;49.572;12.348;2022-11-21T00:09:38;8.60;;;7.83;;
37097;SDS011;63608;49.572;12.348;2022-11-21T00:11:42;8.20;;;7.50;;
37097;SDS011;63608;49.572;12.348;2022-11-21T00:13:45;8.67;;;7.83;;
37097;SDS011;63608;49.572;12.348;2022-11-21T00:15:49;8.30;;;7.60;;
37097;SDS011;63608;49.572;12.348;2022-11-21T00:17:51;8.87;;;8.07;;
37097;SDS011;63608;49.572;12.348;2022-11-21T00:19:54;9.30;;;8.43;;
37097;SDS011;63608;49.572;12.348;2022-11-21T00:21:58;8.10;;;7.30;;
37097;SDS011;63608;49.572;12.348;2022-11-21T00:24:00;8.50;;;7.70;;
37097;SDS011;63608;49.572;12.348;2022-11-21T00:26:04;9.70;;;8.53;;
37097;SDS011;63608;49.572;12.348;2022-11-21T00:28:07;8.90;;;8.10;;
37097;SDS011;63608;49.572;12.348;2022-11-21T00:30:09;8.60;;;7.80;;
37097;SDS011;63608;49.572;12.348;2022-11-21T00:32:17;10.03;;;9.03;;
37097;SDS011;63608;49.572;12.348;2022-11-21T00:34:21;7.93;;;7.23;;
37097;SDS011;63608;49.572;12.348;2022-11-21T00:36:23;7.70;;;7.00;;
37097;SDS011;63608;49.572;12.348;2022-11-21T00:38:28;8.67;;;7.87;;
37097;SDS011;63608;49.572;12.348;2022-11-21T00:40:31;7.30;;;6.70;;
37097;SDS011;63608;49.572;12.348;2022-11-21T00:42:34;8.10;;;7.40;;
37097;SDS011;63608;49.572;12.348;2022-11-21T00:44:47;7.80;;;7.10;;
37097;SDS011;63608;49.572;12.348;2022-11-21T00:46:52;7.50;;;6.80;;
37097;SDS011;63608;49.572;12.348;2022-11-21T00:48:58;7.30;;;6.70;;
37097;SDS011;63608;49.572;12.348;2022-11-21T00:51:01;7.10;;;6.57;;
37097;SDS011;63608;49.572;12.348;2022-11-21T00:53:04;8.90;;;7.93;;
37097;SDS011;63608;49.572;12.348;2022-11-21T00:55:08;7.43;;;6.73;;
37097;SDS011;63608;49.572;12.348;2022-11-21T00:57:14;9.60;;;8.60;;
37097;SDS011;63608;49.572;12.348;2022-11-21T00:59:17;9.23;;;8.33;;
37097;SDS011;63608;49.572;12.348;2022-11-21T01:01:21;9.87;;;8.87;;
37097;SDS011;63608;49.572;12.348;2022-11-21T01:03:23;7.60;;;6.90;;
37097;SDS011;63608;49.572;12.348;2022-11-21T01:05:29;8.40;;;7.70;;
37097;SDS011;63608;49.572;12.348;2022-11-21T01:07:33;7.83;;;7.10;;
37097;SDS011;63608;49.572;12.348;2022-11-21T01:09:36;9.23;;;8.30;;
37097;SDS011;63608;49.572;12.348;2022-11-21T01:11:38;8.00;;;7.07;;
37097;SDS011;63608;49.572;12.348;2022-11-21T01:13:41;8.77;;;7.97;;
37097;SDS011;63608;49.572;12.348;2022-11-21T01:15:44;9.47;;;7.27;;
37097;SDS011;63608;49.572;12.348;2022-11-21T01:17:47;7.43;;;6.73;;
37097;SDS011;63608;49.572;12.348;2022-11-21T01:19:50;9.90;;;8.20;;
37097;SDS011;63608;49.572;12.348;2022-11-21T01:21:53;7.53;;;6.83;;
37097;SDS011;63608;49.572;12.348;2022-11-21T01:23:57;8.83;;;8.00;;
37097;SDS011;63608;49.572;12.348;2022-11-21T01:26:00;7.43;;;6.73;;
37097;SDS011;63608;49.572;12.348;2022-11-21T01:28:03;7.40;;;6.73;;
37097;SDS011;63608;49.572;12.348;2022-11-21T01:30:06;9.10;;;8.10;;
37097;SDS011;63608;49.572;12.348;2022-11-21T01:32:10;9.37;;;8.40;;
37097;SDS011;63608;49.572;12.348;2022-11-21T01:34:13;8.03;;;7.33;;
37097;SDS011;63608;49.572;12.348;2022-11-21T01:36:17;8.43;;;7.63;;
37097;SDS011;63608;49.572;12.348;2022-11-21T01:38:22;9.37;;;6.63;;
37097;SDS011;63608;49.572;12.348;2022-11-21T01:40:26;7.20;;;6.60;;
37097;SDS011;63608;49.572;12.348;2022-11-21T01:42:42;7.97;;;7.20;;
37097;SDS011;63608;49.572;12.348;2022-11-21T01:44:46;7.10;;;6.50;;
37097;SDS011;63608;49.572;12.348;2022-11-21T01:46:51;8.07;;;7.27;;
37097;SDS011;63608;49.572;12.348;2022-11-21T01:48:55;10.53;;;7.10;;
37097;SDS011;63608;49.572;12.348;2022-11-21T01:51:00;7.50;;;6.80;;
37097;SDS011;63608;49.572;12.348;2022-11-21T01:53:04;10.50;;;7.30;;
37097;SDS011;63608;49.572;12.348;2022-11-21T01:55:12;8.13;;;7.33;;
37097;SDS011;63608;49.572;12.348;2022-11-21T01:57:14;7.27;;;6.67;;
37097;SDS011;63608;49.572;12.348;2022-11-21T01:59:20;8.33;;;6.73;;
37097;SDS011;63608;49.572;12.348;2022-11-21T02:01:25;8.80;;;6.57;;
37097;SDS011;63608;49.572;12.348;2022-11-21T02:03:30;7.67;;;6.70;;
37097;SDS011;63608;49.572;12.348;2022-11-21T02:05:34;6.80;;;6.20;;
37097;SDS011;63608;49.572;12.348;2022-11-21T02:07:39;6.63;;;6.00;;
37097;SDS011;63608;49.572;12.348;2022-11-21T02:09:43;7.53;;;6.87;;
37097;SDS011;63608;49.572;12.348;2022-11-21T02:11:48;7.53;;;6.70;;
37097;SDS011;63608;49.572;12.348;2022-11-21T02:13:53;6.80;;;6.20;;
37097;SDS011;63608;49.572;12.348;2022-11-21T02:15:59;7.57;;;6.27;;
37097;SDS011;63608;49.572;12.348;2022-11-21T02:18:04;7.37;;;6.17;;
37097;SDS011;63608;49.572;12.348;2022-11-21T02:20:10;7.07;;;6.47;;
37097;SDS011;63608;49.572;12.348;2022-11-21T02:22:15;7.53;;;5.60;;
37097;SDS011;63608;49.572;12.348;2022-11-21T02:24:27;6.50;;;5.90;;
37097;SDS011;63608;49.572;12.348;2022-11-21T02:26:35;7.23;;;6.53;;
37097;SDS011;63608;49.572;12.348;2022-11-21T02:28:38;6.90;;;6.30;;
37097;SDS011;63608;49.572;12.348;2022-11-21T02:30:41;8.70;;;6.23;;
37097;SDS011;63608;49.572;12.348;2022-11-21T02:32:44;8.03;;;6.33;;
37097;SDS011;63608;49.572;12.348;2022-11-21T02:34:47;6.63;;;6.07;;
37097;SDS011;63608;49.572;12.348;2022-11-21T02:36:54;6.93;;;6.13;;
37097;SDS011;63608;49.572;12.348;2022-11-21T02:38:57;9.43;;;6.90;;
37097;SDS011;63608;49.572;12.348;2022-11-21T02:41:01;21.33;;;7.27;;
37097;SDS011;63608;49.572;12.348;2022-11-21T02:43:11;7.87;;;5.80;;
37097;SDS011;63608;49.572;12.348;2022-11-21T02:45:17;7.63;;;6.83;;
37097;SDS011;63608;49.572;12.348;2022-11-21T02:47:22;6.60;;;5.70;;
37097;SDS011;63608;49.572;12.348;2022-11-21T02:49:29;7.03;;;5.67;;
37097;SDS011;63608;49.572;12.348;2022-11-21T02:51:36;4.87;;;4.47;;
37097;SDS011;63608;49.572;12.348;2022-11-21T02:53:42;5.83;;;5.30;;
37097;SDS011;63608;49.572;12.348;2022-11-21T02:55:47;6.93;;;5.60;;
37097;SDS011;63608;49.572;12.348;2022-11-21T02:57:50;6.50;;;5.33;;
37097;SDS011;63608;49.572;12.348;2022-11-21T02:59:55;8.27;;;5.70;;
37097;SDS011;63608;49.572;12.348;2022-11-21T03:01:57;5.93;;;5.33;;
37097;SDS011;63608;49.572;12.348;2022-11-21T03:04:00;6.50;;;5.30;;
37097;SDS011;63608;49.572;12.348;2022-11-21T03:06:02;6.03;;;4.90;;
37097;SDS011;63608;49.572;12.348;2022-11-21T03:08:05;5.83;;;5.23;;
37097;SDS011;63608;49.572;12.348;2022-11-21T03:10:13;5.97;;;4.77;;
37097;SDS011;63608;49.572;12.348;2022-11-21T03:12:16;5.30;;;4.83;;
37097;SDS011;63608;49.572;12.348;2022-11-21T03:14:19;4.90;;;4.50;;
37097;SDS011;63608;49.572;12.348;2022-11-21T03:16:23;4.63;;;4.27;;
37097;SDS011;63608;49.572;12.348;2022-11-21T03:18:28;6.80;;;4.40;;
37097;SDS011;63608;49.572;12.348;2022-11-21T03:20:32;6.07;;;5.47;;
37097;SDS011;63608;49.572;12.348;2022-11-21T03:22:37;5.23;;;4.73;;
37097;SDS011;63608;49.572;12.348;2022-11-21T03:24:39;7.30;;;5.97;;
37097;SDS011;63608;49.572;12.348;2022-11-21T03:26:42;5.33;;;4.80;;
37097;SDS011;63608;49.572;12.348;2022-11-21T03:28:45;10.73;;;5.33;;
37097;SDS011;63608;49.572;12.348;2022-11-21T03:30:47;4.43;;;4.10;;
37097;SDS011;63608;49.572;12.348;2022-11-21T03:32:55;4.23;;;3.93;;
37097;SDS011;63608;49.572;12.348;2022-11-21T03:34:58;5.53;;;5.03;;
37097;SDS011;63608;49.572;12.348;2022-11-21T03:37:00;4.90;;;4.20;;
37097;SDS011;63608;49.572;12.348;2022-11-21T03:39:07;6.03;;;4.63;;
37097;SDS011;63608;49.572;12.348;2022-11-21T03:41:09;4.73;;;4.20;;
37097;SDS011;63608;49.572;12.348;2022-11-21T03:43:26;8.60;;;5.17;;
37097;SDS011;63608;49.572;12.348;2022-11-21T03:45:28;8.07;;;5.20;;
37097;SDS011;63608;49.572;12.348;2022-11-21T03:47:35;4.23;;;3.83;;
37097;SDS011;63608;49.572;12.348;2022-11-21T03:49:39;10.37;;;4.53;;
37097;SDS011;63608;49.572;12.348;2022-11-21T03:51:42;5.80;;;4.63;;
37097;SDS011;63608;49.572;12.348;2022-11-21T03:53:46;6.07;;;4.10;;
37097;SDS011;63608;49.572;12.348;2022-11-21T03:55:48;4.80;;;3.80;;
37097;SDS011;63608;49.572;12.348;2022-11-21T03:57:51;4.37;;;4.03;;
37097;SDS011;63608;49.572;12.348;2022-11-21T03:59:54;5.40;;;4.03;;
37097;SDS011;63608;49.572;12.348;2022-11-21T04:01:58;5.60;;;4.33;;
37097;SDS011;63608;49.572;12.348;2022-11-21T04:04:00;4.70;;;3.97;;
37097;SDS011;63608;49.572;12.348;2022-11-21T04:06:04;3.70;;;3.40;;
37097;SDS011;63608;49.572;12.348;2022-11-21T04:08:07;4.60;;;4.07;;
37097;SDS011;63608;49.572;12.348;2022-11-21T04:10:09;5.57;;;3.97;;
37097;SDS011;63608;49.572;12.348;2022-11-21T04:12:12;3.70;;;3.40;;
37097;SDS011;63608;49.572;12.348;2022-11-21T04:14:14;3.83;;;3.53;;
37097;SDS011;63608;49.572;12.348;2022-11-21T04:16:17;3.93;;;3.63;;
37097;SDS011;63608;49.572;12.348;2022-11-21T04:18:22;4.53;;;3.77;;
37097;SDS011;63608;49.572;12.348;2022-11-21T04:20:26;5.90;;;3.40;;
37097;SDS011;63608;49.572;12.348;2022-11-21T04:22:37;6.37;;;3.10;;
37097;SDS011;63608;49.572;12.348;2022-11-21T04:24:42;3.60;;;3.23;;
37097;SDS011;63608;49.572;12.348;2022-11-21T04:26:46;3.73;;;3.50;;
37097;SDS011;63608;49.572;12.348;2022-11-21T04:28:56;3.10;;;2.90;;
37097;SDS011;63608;49.572;12.348;2022-11-21T04:31:01;3.57;;;2.90;;
37097;SDS011;63608;49.572;12.348;2022-11-21T04:33:07;3.30;;;3.10;;
37097;SDS011;63608;49.572;12.348;2022-11-21T04:35:10;2.90;;;2.80;;
37097;SDS011;63608;49.572;12.348;2022-11-21T04:37:12;7.10;;;2.80;;
37097;SDS011;63608;49.572;12.348;2022-11-21T04:39:17;2.73;;;2.63;;
37097;SDS011;63608;49.572;12.348;2022-11-21T04:41:19;3.10;;;2.73;;
37097;SDS011;63608;49.572;12.348;2022-11-21T04:43:22;3.10;;;2.90;;
37097;SDS011;63608;49.572;12.348;2022-11-21T04:45:26;3.17;;;2.87;;
37097;SDS011;63608;49.572;12.348;2022-11-21T04:47:28;4.60;;;3.30;;
37097;SDS011;63608;49.572;12.348;2022-11-21T04:49:36;2.43;;;2.33;;
37097;SDS011;63608;49.572;12.348;2022-11-21T04:51:39;2.67;;;2.50;;
37097;SDS011;63608;49.572;12.348;2022-11-21T04:53:42;3.67;;;2.90;;
37097;SDS011;63608;49.572;12.348;2022-11-21T04:55:48;2.57;;;2.47;;
37097;SDS011;63608;49.572;12.348;2022-11-21T04:57:50;3.80;;;2.80;;
37097;SDS011;63608;49.572;12.348;2022-11-21T04:59:53;3.43;;;2.63;;
37097;SDS011;63608;49.572;12.348;2022-11-21T05:01:56;2.60;;;2.40;;
37097;SDS011;63608;49.572;12.348;2022-11-21T05:03:59;3.00;;;2.80;;
37097;SDS011;63608;49.572;12.348;2022-11-21T05:06:04;3.63;;;2.60;;
37097;SDS011;63608;49.572;12.348;2022-11-21T05:08:07;2.60;;;2.50;;
37097;SDS011;63608;49.572;12.348;2022-11-21T05:10:13;2.50;;;2.30;;
37097;SDS011;63608;49.572;12.348;2022-11-21T05:12:17;3.47;;;3.27;;
37097;SDS011;63608;49.572;12.348;2022-11-21T05:14:37;3.30;;;3.10;;
37097;SDS011;63608;49.572;12.348;2022-11-21T05:16:39;4.03;;;3.73;;
37097;SDS011;63608;49.572;12.348;2022-11-21T05:18:42;8.53;;;3.37;;
37097;SDS011;63608;49.572;12.348;2022-11-21T05:20:44;6.20;;;3.70;;
37097;SDS011;63608;49.572;12.348;2022-11-21T05:22:49;4.77;;;4.30;;
37097;SDS011;63608;49.572;12.348;2022-11-21T05:24:52;5.13;;;3.80;;
37097;SDS011;63608;49.572;12.348;2022-11-21T05:27:00;6.60;;;4.67;;
37097;SDS011;63608;49.572;12.348;2022-11-21T05:29:04;3.87;;;3.53;;
37097;SDS011;63608;49.572;12.348;2022-11-21T05:31:07;3.73;;;3.43;;
37097;SDS011;63608;49.572;12.348;2022-11-21T05:33:11;4.73;;;3.90;;
37097;SDS011;63608;49.572;12.348;2022-11-21T05:35:13;4.07;;;3.70;;
37097;SDS011;63608;49.572;12.348;2022-11-21T05:37:16;4.13;;;3.77;;
37097;SDS011;63608;49.572;12.348;2022-11-21T05:39:21;4.23;;;3.40;;
37097;SDS011;63608;49.572;12.348;2022-11-21T05:41:23;5.73;;;3.70;;
37097;SDS011;63608;49.572;12.348;2022-11-21T05:43:26;6.10;;;3.60;;
37097;SDS011;63608;49.572;12.348;2022-11-21T05:45:56;3.37;;;3.03;;
37097;SDS011;63608;49.572;12.348;2022-11-21T05:47:58;3.77;;;3.50;;
37097;SDS011;63608;49.572;12.348;2022-11-21T05:50:07;3.73;;;3.50;;
37097;SDS011;63608;49.572;12.348;2022-11-21T05:52:10;4.10;;;3.80;;
37097;SDS011;63608;49.572;12.348;2022-11-21T05:54:13;7.17;;;4.80;;
37097;SDS011;63608;49.572;12.348;2022-11-21T05:56:16;4.30;;;3.23;;
37097;SDS011;63608;49.572;12.348;2022-11-21T05:58:20;6.40;;;3.90;;
37097;SDS011;63608;49.572;12.348;2022-11-21T06:00:25;4.93;;;4.03;;
37097;SDS011;63608;49.572;12.348;2022-11-21T06:02:30;8.20;;;3.70;;
37097;SDS011;63608;49.572;12.348;2022-11-21T06:04:49;4.30;;;3.77;;
37097;SDS011;63608;49.572;12.348;2022-11-21T06:06:52;7.40;;;4.33;;
37097;SDS011;63608;49.572;12.348;2022-11-21T06:08:54;7.37;;;3.93;;
37097;SDS011;63608;49.572;12.348;2022-11-21T06:10:56;6.03;;;4.00;;
37097;SDS011;63608;49.572;12.348;2022-11-21T06:12:59;4.60;;;4.20;;
37097;SDS011;63608;49.572;12.348;2022-11-21T06:15:02;8.10;;;3.30;;
37097;SDS011;63608;49.572;12.348;2022-11-21T06:17:04;3.97;;;3.67;;
37097;SDS011;63608;49.572;12.348;2022-11-21T06:19:09;4.10;;;3.70;;
37097;SDS011;63608;49.572;12.348;2022-11-21T06:21:13;4.20;;;3.70;;
37097;SDS011;63608;49.572;12.348;2022-11-21T06:23:19;10.27;;;5.20;;
37097;SDS011;63608;49.572;12.348;2022-11-21T06:25:23;5.03;;;3.77;;
37097;SDS011;63608;49.572;12.348;2022-11-21T06:27:27;4.20;;;3.77;;
37097;SDS011;63608;49.572;12.348;2022-11-21T06:29:31;3.93;;;3.63;;
37097;SDS011;63608;49.572;12.348;2022-11-21T06:31:33;4.53;;;4.13;;
37097;SDS011;63608;49.572;12.348;2022-11-21T06:33:36;5.60;;;4.57;;
37097;SDS011;63608;49.572;12.348;2022-11-21T06:35:41;5.67;;;3.97;;
37097;SDS011;63608;49.572;12.348;2022-11-21T06:37:45;28.03;;;21.03;;
37097;SDS011;63608;49.572;12.348;2022-11-21T06:39:48;10.80;;;7.63;;
37097;SDS011;63608;49.572;12.348;2022-11-21T06:41:50;3.80;;;3.50;;
37097;SDS011;63608;49.572;12.348;2022-11-21T06:43:53;3.50;;;3.30;;
37097;SDS011;63608;49.572;12.348;2022-11-21T06:45:56;4.20;;;3.70;;
37097;SDS011;63608;49.572;12.348;2022-11-21T06:48:00;3.60;;;3.30;;
37097;SDS011;63608;49.572;12.348;2022-11-21T06:50:04;3.60;;;3.33;;
37097;SDS011;63608;49.572;12.348;2022-11-21T06:52:09;4.10;;;3.63;;
37097;SDS011;63608;49.572;12.348;2022-11-21T06:54:13;4.27;;;3.97;;
37097;SDS011;63608;49.572;12.348;2022-11-21T06:56:16;5.73;;;5.17;;
37097;SDS011;63608;49.572;12.348;2022-11-21T06:58:19;4.43;;;4.10;;
37097;SDS011;63608;49.572;12.348;2022-11-21T07:00:22;4.33;;;4.03;;
37097;SDS011;63608;49.572;12.348;2022-11-21T07:02:27;7.03;;;4.00;;
37097;SDS011;63608;49.572;12.348;2022-11-21T07:04:30;4.70;;;4.10;;
37097;SDS011;63608;49.572;12.348;2022-11-21T07:06:33;4.53;;;4.00;;
37097;SDS011;63608;49.572;12.348;2022-11-21T07:08:37;4.93;;;4.50;;
37097;SDS011;63608;49.572;12.348;2022-11-21T07:10:41;5.23;;;4.23;;
37097;SDS011;63608;49.572;12.348;2022-11-21T07:12:44;5.87;;;5.20;;
37097;SDS011;63608;49.572;12.348;2022-11-21T07:15:03;4.77;;;4.37;;
37097;SDS011;63608;49.572;12.348;2022-11-21T07:17:09;4.27;;;3.60;;
37097;SDS011;63608;49.572;12.348;2022-11-21T07:19:13;5.67;;;4.90;;
37097;SDS011;63608;49.572;12.348;2022-11-21T07:21:16;5.93;;;3.80;;
37097;SDS011;63608;49.572;12.348;2022-11-21T07:23:19;4.67;;;3.67;;
37097;SDS011;63608;49.572;12.348;2022-11-21T07:25:24;4.57;;;3.83;;
37097;SDS011;63608;49.572;12.348;2022-11-21T07:27:31;5.03;;;4.13;;
37097;SDS011;63608;49.572;12.348;2022-11-21T07:29:33;4.50;;;4.20;;
37097;SDS011;63608;49.572;12.348;2022-11-21T07:31:37;7.17;;;3.87;;
37097;SDS011;63608;49.572;12.348;2022-11-21T07:33:39;8.00;;;4.50;;
37097;SDS011;63608;49.572;12.348;2022-11-21T07:35:47;4.90;;;4.10;;
37097;SDS011;63608;49.572;12.348;2022-11-21T07:37:50;4.83;;;4.33;;
37097;SDS011;63608;49.572;12.348;2022-11-21T07:39:54;6.13;;;3.97;;
37097;SDS011;63608;49.572;12.348;2022-11-21T07:41:59;8.57;;;4.80;;
37097;SDS011;63608;49.572;12.348;2022-11-21T07:44:01;7.20;;;3.90;;
37097;SDS011;63608;49.572;12.348;2022-11-21T07:46:05;4.47;;;3.53;;
37097;SDS011;63608;49.572;12.348;2022-11-21T07:48:09;5.97;;;4.40;;
37097;SDS011;63608;49.572;12.348;2022-11-21T07:50:14;4.63;;;4.20;;
37097;SDS011;63608;49.572;12.348;2022-11-21T07:52:19;4.33;;;3.97;;
37097;SDS011;63608;49.572;12.348;2022-11-21T07:54:27;5.23;;;3.93;;
37097;SDS011;63608;49.572;12.348;2022-11-21T07:56:35;4.10;;;3.80;;
37097;SDS011;63608;49.572;12.348;2022-11-21T08:01:53;5.00;;;3.50;;
37097;SDS011;63608;49.572;12.348;2022-11-21T08:04:00;7.53;;;4.00;;
37097;SDS011;63608;49.572;12.348;2022-11-21T08:06:25;5.13;;;4.20;;
37097;SDS011;63608;49.572;12.348;2022-11-21T08:08:46;7.33;;;3.77;;
37097;SDS011;63608;49.572;12.348;2022-11-21T08:11:31;3.90;;;3.60;;
37097;SDS011;63608;49.572;12.348;2022-11-21T08:13:47;4.57;;;3.90;;
37097;SDS011;63608;49.572;12.348;2022-11-21T08:16:03;4.83;;;4.13;;
37097;SDS011;63608;49.572;12.348;2022-11-21T08:18:33;7.00;;;4.43;;
37097;SDS011;63608;49.572;12.348;2022-11-21T08:20:52;13.67;;;7.30;;
37097;SDS011;63608;49.572;12.348;2022-11-21T08:23:06;4.33;;;4.03;;
37097;SDS011;63608;49.572;12.348;2022-11-21T08:25:14;4.77;;;3.80;;
37097;SDS011;63608;49.572;12.348;2022-11-21T08:27:50;4.07;;;3.67;;
37097;SDS011;63608;49.572;12.348;2022-11-21T08:30:10;5.70;;;4.47;;
37097;SDS011;63608;49.572;12.348;2022-11-21T08:32:30;4.77;;;4.13;;
37097;SDS011;63608;49.572;12.348;2022-11-21T08:37:18;7.10;;;4.20;;
37097;SDS011;63608;49.572;12.348;2022-11-21T08:39:34;4.97;;;4.00;;
37097;SDS011;63608;49.572;12.348;2022-11-21T08:41:40;4.17;;;3.77;;
37097;SDS011;63608;49.572;12.348;2022-11-21T08:44:01;3.73;;;3.53;;
37097;SDS011;63608;49.572;12.348;2022-11-21T08:46:14;5.53;;;4.00;;
37097;SDS011;63608;49.572;12.348;2022-11-21T08:48:33;6.37;;;5.77;;
37097;SDS011;63608;49.572;12.348;2022-11-21T08:50:57;4.50;;;4.10;;
37097;SDS011;63608;49.572;12.348;2022-11-21T08:53:06;7.40;;;6.30;;
37097;SDS011;63608;49.572;12.348;2022-11-21T08:55:17;6.00;;;4.30;;
37097;SDS011;63608;49.572;12.348;2022-11-21T08:57:26;3.57;;;3.27;;
37097;SDS011;63608;49.572;12.348;2022-11-21T08:59:50;9.07;;;4.63;;
37097;SDS011;63608;49.572;12.348;2022-11-21T09:02:23;5.27;;;3.70;;
37097;SDS011;63608;49.572;12.348;2022-11-21T09:04:36;3.77;;;3.57;;
37097;SDS011;63608;49.572;12.348;2022-11-21T09:07:00;5.93;;;4.50;;
37097;SDS011;63608;49.572;12.348;2022-11-21T09:09:11;4.87;;;4.10;;
37097;SDS011;63608;49.572;12.348;2022-11-21T09:11:19;4.77;;;4.30;;
37097;SDS011;63608;49.572;12.348;2022-11-21T09:13:37;3.63;;;3.33;;
37097;SDS011;63608;49.572;12.348;2022-11-21T09:16:06;4.10;;;3.40;;
37097;SDS011;63608;49.572;12.348;2022-11-21T09:18:28;5.97;;;4.10;;
37097;SDS011;63608;49.572;12.348;2022-11-21T09:20:31;5.37;;;3.97;;
37097;SDS011;63608;49.572;12.348;2022-11-21T09:22:50;9.33;;;4.30;;
37097;SDS011;63608;49.572;12.348;2022-11-21T09:25:01;8.20;;;4.50;;
37097;SDS011;63608;49.572;12.348;2022-11-21T09:27:20;5.50;;;4.07;;
37097;SDS011;63608;49.572;12.348;2022-11-21T09:29:37;3.63;;;3.40;;
37097;SDS011;63608;49.572;12.348;2022-11-21T09:31:48;4.40;;;4.10;;
37097;SDS011;63608;49.572;12.348;2022-11-21T09:33:56;5.90;;;4.30;;
37097;SDS011;63608;49.572;12.348;2022-11-21T09:36:16;5.80;;;4.33;;
37097;SDS011;63608;49.572;12.348;2022-11-21T09:38:39;6.20;;;4.00;;
37097;SDS011;63608;49.572;12.348;2022-11-21T09:40:48;5.40;;;4.90;;
37097;SDS011;63608;49.572;12.348;2022-11-21T09:43:02;6.87;;;4.73;;
37097;SDS011;63608;49.572;12.348;2022-11-21T09:45:29;6.30;;;4.47;;
37097;SDS011;63608;49.572;12.348;2022-11-21T09:47:47;8.80;;;4.70;;
37097;SDS011;63608;49.572;12.348;2022-11-21T09:50:15;7.73;;;4.97;;
37097;SDS011;63608;49.572;12.348;2022-11-21T09:52:38;4.90;;;4.23;;
37097;SDS011;63608;49.572;12.348;2022-11-21T09:54:58;7.10;;;5.43;;
37097;SDS011;63608;49.572;12.348;2022-11-21T09:57:20;4.70;;;4.27;;
37097;SDS011;63608;49.572;12.348;2022-11-21T09:59:31;5.30;;;4.00;;
37097;SDS011;63608;49.572;12.348;2022-11-21T10:01:42;8.53;;;4.67;;
37097;SDS011;63608;49.572;12.348;2022-11-21T10:03:51;4.73;;;4.33;;
37097;SDS011;63608;49.572;12.348;2022-11-21T10:06:10;5.90;;;4.27;;
37097;SDS011;63608;49.572;12.348;2022-11-21T10:08:40;4.70;;;4.33;;
37097;SDS011;63608;49.572;12.348;2022-11-21T10:16:40;7.27;;;4.30;;
37097;SDS011;63608;49.572;12.348;2022-11-21T10:19:22;6.20;;;4.50;;
37097;SDS011;63608;49.572;12.348;2022-11-21T10:21:41;3.97;;;3.67;;
37097;SDS011;63608;49.572;12.348;2022-11-21T10:27:15;4.13;;;3.90;;
37097;SDS011;63608;49.572;12.348;2022-11-21T10:29:29;6.03;;;4.23;;
37097;SDS011;63608;49.572;12.348;2022-11-21T10:31:51;6.20;;;4.30;;
37097;SDS011;63608;49.572;12.348;2022-11-21T10:34:04;4.73;;;4.33;;
37097;SDS011;63608;49.572;12.348;2022-11-21T10:36:39;4.80;;;4.30;;
37097;SDS011;63608;49.572;12.348;2022-11-21T10:38:56;4.90;;;4.50;;
37097;SDS011;63608;49.572;12.348;2022-11-21T10:41:20;4.57;;;4.03;;
37097;SDS011;63608;49.572;12.348;2022-11-21T10:43:43;6.43;;;5.07;;
37097;SDS011;63608;49.572;12.348;2022-11-21T10:46:10;6.73;;;4.77;;
37097;SDS011;63608;49.572;12.348;2022-11-21T10:48:23;4.93;;;4.40;;
37097;SDS011;63608;49.572;12.348;2022-11-21T10:50:39;5.23;;;4.23;;
37097;SDS011;63608;49.572;12.348;2022-11-21T10:53:21;5.40;;;4.67;;
37097;SDS011;63608;49.572;12.348;2022-11-21T10:55:49;6.37;;;4.30;;
37097;SDS011;63608;49.572;12.348;2022-11-21T10:58:27;4.97;;;4.57;;
37097;SDS011;63608;49.572;12.348;2022-11-21T11:00:56;4.70;;;4.30;;
37097;SDS011;63608;49.572;12.348;2022-11-21T11:03:17;5.20;;;4.70;;
37097;SDS011;63608;49.572;12.348;2022-11-21T11:05:58;4.13;;;3.30;;
37097;SDS011;63608;49.572;12.348;2022-11-21T11:08:20;5.00;;;4.50;;
37097;SDS011;63608;49.572;12.348;2022-11-21T11:11:00;6.10;;;4.63;;
37097;SDS011;63608;49.572;12.348;2022-11-21T11:13:50;7.07;;;5.57;;
37097;SDS011;63608;49.572;12.348;2022-11-21T11:16:14;5.73;;;4.33;;
37097;SDS011;63608;49.572;12.348;2022-11-21T11:18:36;6.60;;;4.90;;
37097;SDS011;63608;49.572;12.348;2022-11-21T11:21:20;4.77;;;4.20;;
37097;SDS011;63608;49.572;12.348;2022-11-21T11:24:06;6.20;;;4.60;;
37097;SDS011;63608;49.572;12.348;2022-11-21T11:26:49;5.10;;;4.60;;
37097;SDS011;63608;49.572;12.348;2022-11-21T11:29:25;4.40;;;4.00;;
37097;SDS011;63608;49.572;12.348;2022-11-21T11:40:27;2.93;;;2.73;;
37097;SDS011;63608;49.572;12.348;2022-11-21T11:42:53;3.23;;;2.93;;
37097;SDS011;63608;49.572;12.348;2022-11-21T11:45:32;3.70;;;3.27;;
37097;SDS011;63608;49.572;12.348;2022-11-21T11:48:15;3.67;;;3.00;;
37097;SDS011;63608;49.572;12.348;2022-11-21T11:50:28;3.00;;;2.90;;
37097;SDS011;63608;49.572;12.348;2022-11-21T11:52:48;3.10;;;2.90;;
37097;SDS011;63608;49.572;12.348;2022-11-21T11:58:05;5.27;;;3.30;;
37097;SDS011;63608;49.572;12.348;2022-11-21T12:00:32;3.53;;;3.33;;
37097;SDS011;63608;49.572;12.348;2022-11-21T12:05:11;2.60;;;2.43;;
37097;SDS011;63608;49.572;12.348;2022-11-21T12:07:53;3.67;;;3.20;;
37097;SDS011;63608;49.572;12.348;2022-11-21T12:10:22;3.30;;;2.70;;
37097;SDS011;63608;49.572;12.348;2022-11-21T12:12:40;3.47;;;3.07;;
37097;SDS011;63608;49.572;12.348;2022-11-21T12:14:46;3.40;;;3.20;;
37097;SDS011;63608;49.572;12.348;2022-11-21T12:17:13;3.80;;;2.70;;
37097;SDS011;63608;49.572;12.348;2022-11-21T12:19:16;4.17;;;3.00;;
37097;SDS011;63608;49.572;12.348;2022-11-21T12:21:19;3.17;;;2.97;;
37097;SDS011;63608;49.572;12.348;2022-11-21T12:23:24;4.93;;;3.03;;
37097;SDS011;63608;49.572;12.348;2022-11-21T12:25:28;3.13;;;2.93;;
37097;SDS011;63608;49.572;12.348;2022-11-21T12:27:36;5.87;;;4.50;;
37097;SDS011;63608;49.572;12.348;2022-11-21T12:29:45;3.87;;;3.60;;
37097;SDS011;63608;49.572;12.348;2022-11-21T12:31:58;7.73;;;2.70;;
37097;SDS011;63608;49.572;12.348;2022-11-21T12:34:16;3.03;;;2.83;;
37097;SDS011;63608;49.572;12.348;2022-11-21T12:36:30;3.73;;;3.33;;
37097;SDS011;63608;49.572;12.348;2022-11-21T12:38:47;3.30;;;3.10;;
37097;SDS011;63608;49.572;12.348;2022-11-21T12:41:18;4.60;;;2.80;;
37097;SDS011;63608;49.572;12.348;2022-11-21T12:43:46;3.37;;;2.40;;
37097;SDS011;63608;49.572;12.348;2022-11-21T12:45:54;4.30;;;2.63;;
37097;SDS011;63608;49.572;12.348;2022-11-21T12:50:47;3.20;;;3.00;;
37097;SDS011;63608;49.572;12.348;2022-11-21T12:53:10;4.17;;;3.77;;
37097;SDS011;63608;49.572;12.348;2022-11-21T12:55:41;2.20;;;2.10;;
37097;SDS011;63608;49.572;12.348;2022-11-21T12:57:48;2.77;;;2.57;;
37097;SDS011;63608;49.572;12.348;2022-11-21T13:00:04;3.20;;;3.00;;
37097;SDS011;63608;49.572;12.348;2022-11-21T13:02:14;2.30;;;2.10;;
37097;SDS011;63608;49.572;12.348;2022-11-21T13:04:25;2.50;;;2.30;;
37097;SDS011;63608;49.572;12.348;2022-11-21T13:06:31;2.90;;;2.70;;
37097;SDS011;63608;49.572;12.348;2022-11-21T13:08:36;6.53;;;4.20;;
37097;SDS011;63608;49.572;12.348;2022-11-21T13:10:40;4.47;;;3.30;;
37097;SDS011;63608;49.572;12.348;2022-11-21T13:12:46;2.73;;;2.53;;
37097;SDS011;63608;49.572;12.348;2022-11-21T13:14:51;3.70;;;3.40;;
37097;SDS011;63608;49.572;12.348;2022-11-21T13:17:01;3.20;;;2.90;;
37097;SDS011;63608;49.572;12.348;2022-11-21T13:19:17;2.70;;;2.50;;
37097;SDS011;63608;49.572;12.348;2022-11-21T13:23:42;3.43;;;3.10;;